Terminal Aerodrome Forecast
Issued by NWS Atlanta, GA

Home | Current Version | Previous Version | Text Only | Print | Product List | Glossary On
Versions: 1 2 3 4 5 6 7 8 9 10 11 12 13 14 15 16 17 18 19 20 21 22 23 24 25 26 27 28 29 30 31 32 33 34 35 36 37 38 39 40
000
FTUS42 KFFC 030523
TAFATL
TAF
KATL 030523Z 0306/0412 23008KT P6SM SCT050 BKN090
     FM030800 26004KT 5SM BR SCT009 BKN015
     FM031000 24005KT 6SM BR BKN008
     FM031400 27010KT P6SM OVC015 PROB30 0316/0318 -SHRA OVC030
     FM031800 30012KT P6SM BKN050
     FM040300 30008KT P6SM SCT100=

USA.gov is the U.S. government's official web portal to all federal, state and local government web resources and services.